Time;durP1;ratioP1;P1;durP2;ratioP2;P2;SDS_P1;SDS_P2;PMS_P1;PMS_P2;Temp;Humidity;BMP_temperature;BMP_pressure;BME280_temperature;BME280_humidity;BME280_pressure;Samples;Min_cycle;Max_cycle;Signal;HPM_P1;HPM_P2
2023/12/08 00:01:39;;;;;;;12.18;2.92;;;;;;;7.07;100.00;98534.22;5036961;28;20482;-78
2023/12/08 00:04:04;;;;;;;8.98;2.10;;;;;;;7.14;100.00;98533.16;5036745;28;20032;-78
2023/12/08 00:06:31;;;;;;;14.20;2.53;;;;;;;7.25;100.00;98539.72;5020316;28;20068;-78
2023/12/08 00:08:58;;;;;;;10.07;2.53;;;;;;;7.25;100.00;98542.38;5020327;28;20037;-79
2023/12/08 00:11:24;;;;;;;10.68;3.47;;;;;;;7.11;100.00;98546.13;5020007;28;20483;-78
2023/12/08 00:13:50;;;;;;;13.32;2.95;;;;;;;7.05;100.00;98548.59;5020252;28;20028;-78
2023/12/08 00:16:15;;;;;;;12.60;2.80;;;;;;;7.05;100.00;98547.78;5020223;28;20145;-79
2023/12/08 00:18:41;;;;;;;8.93;2.10;;;;;;;7.05;100.00;98553.13;5036370;28;20603;-78
2023/12/08 00:21:07;;;;;;;10.40;3.30;;;;;;;7.02;100.00;98550.88;5020020;28;20033;-78
2023/12/08 00:23:34;;;;;;;14.38;2.53;;;;;;;6.90;100.00;98556.00;5020130;28;20032;-79
2023/12/08 00:26:00;;;;;;;12.75;2.65;;;;;;;6.83;100.00;98555.19;5020012;28;20106;-79
2023/12/08 00:28:26;;;;;;;8.80;2.05;;;;;;;6.82;100.00;98566.88;5019963;28;20036;-79
2023/12/08 00:30:52;;;;;;;10.10;1.80;;;;;;;6.81;100.00;98568.75;5019908;28;20036;-79
2023/12/08 00:33:17;;;;;;;13.30;3.38;;;;;;;6.85;100.00;98552.28;5019609;28;20430;-80
2023/12/08 00:35:43;;;;;;;12.23;2.65;;;;;;;6.88;100.00;98562.56;5019953;28;20037;-80
2023/12/08 00:38:09;;;;;;;10.13;2.28;;;;;;;6.90;100.00;98568.53;5019884;28;20033;-79
2023/12/08 00:40:35;;;;;;;10.50;2.78;;;;;;;6.91;100.00;98565.66;5019874;28;20029;-79
2023/12/08 00:43:02;;;;;;;7.97;2.00;;;;;;;6.86;100.00;98564.66;5035684;28;20119;-79
2023/12/08 00:45:27;;;;;;;7.15;1.60;;;;;;;6.80;100.00;98558.25;5019760;28;20064;-80
2023/12/08 00:47:53;;;;;;;12.88;2.45;;;;;;;6.74;100.00;98551.06;5053812;28;20065;-79
2023/12/08 00:50:19;;;;;;;9.75;2.30;;;;;;;6.81;100.00;98565.25;5019584;28;20032;-80
2023/12/08 00:52:44;;;;;;;12.82;2.10;;;;;;;6.86;100.00;98568.13;5019397;28;20456;-79
2023/12/08 00:55:10;;;;;;;9.57;2.50;;;;;;;6.85;100.00;98557.63;5018836;28;20442;-79
2023/12/08 00:57:35;;;;;;;16.98;2.40;;;;;;;6.89;100.00;98565.03;5035897;28;20056;-79
2023/12/08 01:00:01;;;;;;;7.85;1.70;;;;;;;6.91;100.00;98573.69;5036031;28;20391;-80
2023/12/08 01:02:27;;;;;;;11.15;1.77;;;;;;;6.84;100.00;98570.19;5020090;28;20479;-79
2023/12/08 01:04:52;;;;;;;12.45;2.95;;;;;;;6.76;100.00;98570.38;5035793;28;20483;-79
2023/12/08 01:07:18;;;;;;;4.72;1.15;;;;;;;6.71;100.00;98573.66;5019473;28;20029;-79
2023/12/08 01:09:44;;;;;;;12.88;2.28;;;;;;;6.69;100.00;98583.72;5035744;28;20119;-79
2023/12/08 01:12:09;;;;;;;8.70;1.80;;;;;;;6.68;100.00;98573.25;5051947;28;20373;-79
2023/12/08 01:14:35;;;;;;;6.85;1.48;;;;;;;6.68;100.00;98571.41;5052620;28;20031;-79
2023/12/08 01:17:00;;;;;;;4.95;1.02;;;;;;;6.70;100.00;98569.34;5035858;28;20029;-79
2023/12/08 01:19:27;;;;;;;2.67;1.13;;;;;;;6.71;100.00;98576.34;5019369;28;20040;-79
2023/12/08 01:21:53;;;;;;;9.30;1.58;;;;;;;6.74;100.00;98575.91;5035744;28;20029;-79
2023/12/08 01:24:18;;;;;;;3.35;1.02;;;;;;;6.79;100.00;98583.31;5035798;28;20139;-79
2023/12/08 01:26:44;;;;;;;8.40;1.10;;;;;;;6.83;100.00;98580.03;5052443;28;20444;-79
2023/12/08 01:29:13;;;;;;;7.88;2.17;;;;;;;6.91;100.00;98579.03;5035777;28;20383;-79
2023/12/08 01:31:39;;;;;;;1.15;0.73;;;;;;;6.97;100.00;98580.88;5035424;28;20021;-79
2023/12/08 01:34:04;;;;;;;4.82;1.30;;;;;;;7.04;100.00;98588.91;5019123;28;20388;-79
2023/12/08 01:36:30;;;;;;;4.22;0.85;;;;;;;7.10;100.00;98589.91;5035731;28;20102;-79
2023/12/08 01:38:56;;;;;;;2.30;1.10;;;;;;;7.12;100.00;98593.19;5019171;28;20076;-80
2023/12/08 01:41:21;;;;;;;9.32;1.40;;;;;;;7.11;100.00;98583.53;5019765;28;20037;-79
2023/12/08 01:43:47;;;;;;;4.32;1.17;;;;;;;6.99;100.00;98583.34;5051826;28;20545;-79
2023/12/08 01:46:15;;;;;;;2.95;0.73;;;;;;;6.92;100.00;98590.53;5019126;28;20463;-78
2023/12/08 01:48:42;;;;;;;6.72;0.95;;;;;;;6.81;100.00;98581.28;5036232;28;20119;-78
2023/12/08 01:51:09;;;;;;;4.18;1.40;;;;;;;6.77;100.00;98586.22;5018927;28;20021;-79
2023/12/08 01:53:41;;;;;;;3.28;1.65;;;;;;;6.79;100.00;98578.81;5051598;28;20036;-79
2023/12/08 01:56:08;;;;;;;8.30;1.30;;;;;;;6.77;100.00;98572.00;5036125;28;20055;-78
2023/12/08 01:58:34;;;;;;;1.25;0.52;;;;;;;6.87;100.00;98591.13;5018989;28;20060;-78
2023/12/08 02:01:03;;;;;;;10.23;1.25;;;;;;;6.89;100.00;98589.09;5034962;28;20460;-78
2023/12/08 02:03:33;;;;;;;7.75;1.58;;;;;;;6.93;100.00;98593.00;5035329;28;20032;-78
2023/12/08 02:05:59;;;;;;;3.35;1.52;;;;;;;7.07;100.00;98604.50;5036727;28;20029;-79
2023/12/08 02:08:25;;;;;;;4.68;1.17;;;;;;;7.11;100.00;98599.56;5006024;28;20040;-78
2023/12/08 02:10:51;;;;;;;6.95;1.50;;;;;;;7.15;100.00;98609.63;5055422;28;20033;-78
2023/12/08 02:13:16;;;;;;;1.35;0.68;;;;;;;7.16;100.00;98607.78;5022204;28;20395;-78
2023/12/08 02:15:46;;;;;;;7.28;1.30;;;;;;;7.18;100.00;98609.22;5038472;28;20071;-78
2023/12/08 02:18:13;;;;;;;3.90;1.02;;;;;;;7.17;100.00;98612.09;5038751;28;20364;-78
2023/12/08 02:20:40;;;;;;;3.30;1.10;;;;;;;7.14;100.00;98615.19;5022262;28;20033;-78
2023/12/08 02:23:06;;;;;;;4.03;1.05;;;;;;;7.12;100.00;98622.56;5055228;28;20028;-78
2023/12/08 02:25:32;;;;;;;7.18;1.30;;;;;;;7.09;100.00;98617.66;5021904;28;20065;-78
2023/12/08 02:27:58;;;;;;;2.90;1.10;;;;;;;6.97;100.00;98604.91;5038782;28;20048;-78
2023/12/08 02:30:24;;;;;;;5.72;1.85;;;;;;;6.99;100.00;98618.06;5022685;28;20028;-78
2023/12/08 02:32:59;;;;;;;22.83;1.75;;;;;;;6.99;100.00;98613.56;5021764;28;20383;-79
2023/12/08 02:35:25;;;;;;;5.13;1.50;;;;;;;6.99;100.00;98616.22;5054714;28;20087;-78
2023/12/08 02:37:51;;;;;;;6.25;1.50;;;;;;;6.99;100.00;98618.06;5021915;28;20083;-79
2023/12/08 02:40:18;;;;;;;2.38;0.93;;;;;;;6.99;100.00;98610.06;5055091;28;20086;-78
2023/12/08 02:42:44;;;;;;;7.55;1.60;;;;;;;7.03;100.00;98630.81;5021881;28;20036;-78
2023/12/08 02:45:09;;;;;;;2.55;1.50;;;;;;;7.04;100.00;98626.31;5038438;28;20368;-79
2023/12/08 02:47:35;;;;;;;7.13;1.30;;;;;;;7.07;100.00;98625.06;5038820;28;20033;-79
2023/12/08 02:50:01;;;;;;;9.07;1.27;;;;;;;7.09;100.00;98631.00;5022350;28;20031;-78
2023/12/08 02:52:26;;;;;;;2.63;0.98;;;;;;;7.11;100.00;98628.97;5038062;28;20414;-79
2023/12/08 02:54:52;;;;;;;0.50;0.50;;;;;;;7.08;100.00;98627.53;5038394;28;20040;-78
2023/12/08 02:57:18;;;;;;;2.10;1.33;;;;;;;7.13;100.00;98634.94;5021693;28;20033;-78
2023/12/08 02:59:43;;;;;;;6.03;0.90;;;;;;;7.18;100.00;98637.81;5021637;28;20040;-78
2023/12/08 03:02:09;;;;;;;2.90;1.27;;;;;;;7.22;100.00;98631.00;5038030;28;20533;-79
2023/12/08 03:04:34;;;;;;;4.43;1.38;;;;;;;7.25;100.00;98633.25;5038017;28;20420;-78
2023/12/08 03:07:00;;;;;;;0.63;0.63;;;;;;;7.30;100.00;98638.81;5038060;28;20091;-79
2023/12/08 03:09:26;;;;;;;2.95;1.23;;;;;;;7.31;100.00;98637.81;5037649;28;20029;-78
2023/12/08 03:11:52;;;;;;;6.05;1.17;;;;;;;7.34;100.00;98634.72;5021153;28;20056;-78
2023/12/08 03:14:18;;;;;;;8.85;1.33;;;;;;;7.35;100.00;98628.31;5037956;28;20483;-79
2023/12/08 03:16:46;;;;;;;0.30;0.30;;;;;;;7.42;100.00;98633.69;5020696;28;20039;-79
2023/12/08 03:19:12;;;;;;;0.57;0.43;;;;;;;7.40;100.00;98628.53;5021323;28;20037;-78
2023/12/08 03:21:37;;;;;;;3.92;1.20;;;;;;;7.40;100.00;98625.84;5021188;28;20041;-78
2023/12/08 03:24:03;;;;;;;9.50;1.35;;;;;;;7.40;100.00;98628.53;5037642;28;20108;-78
2023/12/08 03:26:29;;;;;;;2.60;0.73;;;;;;;7.36;100.00;98638.00;5021035;28;20349;-79
2023/12/08 03:28:55;;;;;;;0.98;0.82;;;;;;;7.36;100.00;98637.19;5021121;28;20075;-79
2023/12/08 03:31:21;;;;;;;2.10;1.08;;;;;;;7.43;100.00;98646.00;5020815;28;20036;-79
2023/12/08 03:33:47;;;;;;;6.97;2.15;;;;;;;7.39;100.00;98653.63;5053820;28;20033;-79
2023/12/08 03:36:12;;;;;;;4.85;1.35;;;;;;;7.29;100.00;98663.09;5020937;28;20040;-79
2023/12/08 03:38:38;;;;;;;0.60;0.60;;;;;;;7.24;100.00;98679.75;5037378;28;20033;-79
2023/12/08 03:41:04;;;;;;;1.63;0.75;;;;;;;7.20;100.00;98679.34;5054642;28;20115;-79
2023/12/08 03:43:29;;;;;;;5.03;1.40;;;;;;;7.19;100.00;98679.53;5020614;28;20406;-79
2023/12/08 03:45:55;;;;;;;0.40;0.40;;;;;;;7.12;100.00;98670.69;5020790;28;20029;-78
2023/12/08 03:48:24;;;;;;;0.40;0.40;;;;;;;7.20;100.00;98679.34;5037590;28;20482;-79
2023/12/08 03:50:49;;;;;;;0.40;0.40;;;;;;;7.20;100.00;98678.53;5053469;28;20029;-79
2023/12/08 03:53:15;;;;;;;0.40;0.40;;;;;;;7.17;100.00;98676.22;5020615;28;20029;-79
2023/12/08 03:55:40;;;;;;;0.40;0.40;;;;;;;7.12;100.00;98663.50;5020530;28;20033;-79
2023/12/08 03:58:06;;;;;;;0.40;0.40;;;;;;;7.05;100.00;98668.03;5020480;28;20029;-79
2023/12/08 04:00:32;;;;;;;0.32;0.32;;;;;;;7.03;100.00;98668.22;5020896;28;20025;-79
2023/12/08 04:02:57;;;;;;;0.40;0.40;;;;;;;7.01;100.00;98670.28;5036886;28;20391;-79
2023/12/08 04:05:23;;;;;;;0.32;0.32;;;;;;;7.05;100.00;98679.53;5053362;28;20040;-78
2023/12/08 04:07:49;;;;;;;0.40;0.40;;;;;;;7.08;100.00;98670.28;5020360;28;20028;-79
2023/12/08 04:10:14;;;;;;;0.40;0.40;;;;;;;7.11;100.00;98669.03;5036317;28;20040;-79
2023/12/08 04:12:40;;;;;;;0.30;0.30;;;;;;;7.12;100.00;98681.38;5020091;28;20434;-78
2023/12/08 04:15:06;;;;;;;0.30;0.30;;;;;;;7.08;100.00;98670.28;5020212;28;20037;-78
2023/12/08 04:17:32;;;;;;;0.40;0.40;;;;;;;7.13;100.00;98683.84;5019942;28;20033;-79
2023/12/08 04:19:57;;;;;;;0.40;0.40;;;;;;;7.15;100.00;98678.31;5020286;28;20028;-78
2023/12/08 04:22:23;;;;;;;0.40;0.40;;;;;;;7.12;100.00;98668.84;5036536;28;20387;-78
2023/12/08 04:24:49;;;;;;;0.40;0.40;;;;;;;7.14;100.00;98674.78;5036846;28;20079;-79
2023/12/08 04:27:14;;;;;;;0.40;0.40;;;;;;;7.15;100.00;98672.97;5053183;28;20028;-78
2023/12/08 04:29:40;;;;;;;0.40;0.40;;;;;;;7.17;100.00;98681.59;5036423;28;20045;-79
2023/12/08 04:32:06;;;;;;;0.30;0.30;;;;;;;7.18;100.00;98683.25;5035925;28;20031;-79
2023/12/08 04:34:32;;;;;;;0.40;0.40;;;;;;;7.19;100.00;98679.53;5036508;28;20037;-79
2023/12/08 04:36:58;;;;;;;0.40;0.40;;;;;;;7.23;100.00;98686.13;5019934;28;20036;-78
2023/12/08 04:39:24;;;;;;;0.30;0.30;;;;;;;7.25;100.00;98684.91;5036083;28;20033;-79
2023/12/08 04:41:49;;;;;;;0.40;0.40;;;;;;;7.27;100.00;98690.03;5019627;28;20091;-78
2023/12/08 04:44:15;;;;;;;0.40;0.40;;;;;;;7.28;100.00;98691.69;5019729;28;20103;-78
2023/12/08 04:46:41;;;;;;;0.40;0.40;;;;;;;7.29;100.00;98697.84;5035960;28;20036;-78
2023/12/08 04:49:06;;;;;;;0.40;0.40;;;;;;;7.20;100.00;98665.97;5019779;28;20450;-79
2023/12/08 04:51:32;;;;;;;0.40;0.40;;;;;;;7.12;100.00;98679.53;5019570;28;20451;-78
2023/12/08 04:53:57;;;;;;;0.40;0.40;;;;;;;7.01;100.00;98678.31;5019516;28;20356;-78
2023/12/08 04:56:23;;;;;;;0.40;0.40;;;;;;;7.02;100.00;98676.44;5036222;28;20463;-79
2023/12/08 04:58:49;;;;;;;0.40;0.40;;;;;;;6.98;100.00;98670.66;5035945;28;20445;-79
2023/12/08 05:01:15;;;;;;;0.38;0.38;;;;;;;7.02;100.00;98679.13;5052233;28;20053;-78
2023/12/08 05:03:41;;;;;;;0.40;0.40;;;;;;;6.99;100.00;98661.66;5019844;28;20525;-79
2023/12/08 05:06:07;;;;;;;0.40;0.40;;;;;;;7.17;100.00;98676.22;5052444;28;20422;-78
2023/12/08 05:08:33;;;;;;;0.30;0.30;;;;;;;7.14;100.00;98671.31;5052342;28;20029;-78
2023/12/08 05:10:59;;;;;;;0.40;0.40;;;;;;;7.25;100.00;98673.34;5019663;28;20031;-79
2023/12/08 05:13:27;;;;;;;0.40;0.40;;;;;;;7.20;100.00;98667.84;5019524;28;20444;-79
2023/12/08 05:15:53;;;;;;;0.40;0.40;;;;;;;7.27;100.00;98690.03;5019423;28;20044;-78
2023/12/08 05:18:18;;;;;;;0.30;0.30;;;;;;;7.24;100.00;98696.59;5019418;28;20025;-78
2023/12/08 05:20:44;;;;;;;0.30;0.30;;;;;;;7.23;100.00;98688.81;5035530;28;20028;-78
2023/12/08 05:23:10;;;;;;;0.40;0.40;;;;;;;7.25;100.00;98698.25;5035830;28;20054;-78
2023/12/08 05:25:36;;;;;;;0.40;0.40;;;;;;;7.27;100.00;98690.84;5051897;28;20021;-79
2023/12/08 05:28:02;;;;;;;0.40;0.40;;;;;;;7.36;100.00;98693.34;5019380;28;20106;-79
2023/12/08 05:30:28;;;;;;;0.40;0.40;;;;;;;7.36;100.00;98704.84;5052449;28;20041;-79
2023/12/08 05:32:54;;;;;;;0.40;0.40;;;;;;;7.36;100.00;98693.34;5035554;28;20025;-78
2023/12/08 05:35:20;;;;;;;0.30;0.30;;;;;;;7.38;100.00;98696.59;5035557;28;20063;-79
2023/12/08 05:37:45;;;;;;;0.30;0.30;;;;;;;7.41;100.00;98696.19;5019287;28;20033;-78
2023/12/08 05:40:12;;;;;;;0.30;0.30;;;;;;;7.41;100.00;98701.53;5019791;28;20041;-78
2023/12/08 05:42:37;;;;;;;0.30;0.30;;;;;;;7.43;100.00;98694.94;5055756;28;20107;-79
2023/12/08 05:45:04;;;;;;;0.40;0.40;;;;;;;7.43;100.00;98708.31;5023229;28;20520;-78
2023/12/08 05:47:29;;;;;;;0.40;0.40;;;;;;;7.46;100.00;98715.09;5022895;28;20069;-78
2023/12/08 05:49:55;;;;;;;0.30;0.30;;;;;;;7.45;100.00;98692.09;5039432;28;20053;-78
2023/12/08 05:52:20;;;;;;;0.38;0.38;;;;;;;7.44;100.00;98701.16;5022600;28;20036;-78
2023/12/08 05:54:46;;;;;;;0.40;0.40;;;;;;;7.43;100.00;98694.94;5039596;28;20387;-78
2023/12/08 05:57:12;;;;;;;0.40;0.40;;;;;;;7.46;100.00;98707.94;5039124;28;20032;-78
2023/12/08 05:59:37;;;;;;;0.40;0.40;;;;;;;7.47;100.00;98692.72;5022497;28;20086;-78
2023/12/08 06:02:03;;;;;;;0.38;0.38;;;;;;;7.49;100.00;98693.34;5039343;28;20036;-78
2023/12/08 06:04:28;;;;;;;0.32;0.32;;;;;;;7.47;100.00;98690.84;5055883;28;20456;-78
2023/12/08 06:06:54;;;;;;;0.40;0.40;;;;;;;7.49;100.00;98688.81;5039219;28;20053;-78
2023/12/08 06:09:20;;;;;;;0.40;0.40;;;;;;;7.55;100.00;98691.69;5038969;28;20099;-79
2023/12/08 06:11:45;;;;;;;0.30;0.30;;;;;;;7.55;100.00;98691.69;5022736;28;20032;-79
2023/12/08 06:14:11;;;;;;;0.40;0.40;;;;;;;7.54;100.00;98706.06;5039029;28;20440;-78
2023/12/08 06:16:37;;;;;;;0.40;0.40;;;;;;;7.60;100.00;98699.91;5039017;28;20427;-78
2023/12/08 06:19:04;;;;;;;0.40;0.40;;;;;;;7.65;100.00;98703.59;5022410;28;20045;-78
2023/12/08 06:21:30;;;;;;;0.40;0.40;;;;;;;7.74;100.00;98722.13;5055617;28;20091;-78
2023/12/08 06:23:56;;;;;;;0.40;0.40;;;;;;;7.73;100.00;98707.91;5022374;28;20037;-79
2023/12/08 06:26:22;;;;;;;0.40;0.40;;;;;;;7.72;100.00;98712.41;5055605;28;20039;-78
2023/12/08 06:28:47;;;;;;;0.32;0.32;;;;;;;7.70;100.00;98713.69;5022379;28;20036;-78
2023/12/08 06:31:13;;;;;;;0.40;0.40;;;;;;;7.71;100.00;98718.00;5022494;28;20045;-78
2023/12/08 06:33:41;;;;;;;0.40;0.40;;;;;;;7.72;100.00;98719.63;5038540;28;20099;-78
2023/12/08 06:36:08;;;;;;;0.40;0.40;;;;;;;7.70;100.00;98727.88;5038448;28;20082;-78
2023/12/08 06:38:33;;;;;;;0.40;0.40;;;;;;;7.67;100.00;98730.97;5038525;28;20036;-78
2023/12/08 06:40:59;;;;;;;0.40;0.40;;;;;;;7.61;100.00;98722.94;5038286;28;20032;-78
2023/12/08 06:43:24;;;;;;;0.40;0.40;;;;;;;7.60;100.00;98732.00;5054799;28;20444;-78
2023/12/08 06:45:50;;;;;;;0.40;0.40;;;;;;;7.56;100.00;98736.09;5038347;28;20383;-78
2023/12/08 06:48:17;;;;;;;0.30;0.30;;;;;;;7.49;100.00;98715.53;5054344;28;20464;-78
2023/12/08 06:50:42;;;;;;;0.30;0.30;;;;;;;7.54;100.00;98728.31;5038005;28;20033;-78
2023/12/08 06:53:08;;;;;;;0.30;0.30;;;;;;;7.49;100.00;98723.56;5020627;28;20033;-78
2023/12/08 06:56:04;;;;;;;0.40;0.40;;;;;;;7.53;100.00;98726.63;5021726;28;20361;-78
2023/12/08 06:58:30;;;;;;;0.40;0.40;;;;;;;7.48;100.00;98732.59;5027533;28;20059;-77
2023/12/08 07:00:55;;;;;;;0.50;0.50;;;;;;;7.45;100.00;98735.69;5021607;28;20033;-78
2023/12/08 07:03:21;;;;;;;0.40;0.40;;;;;;;7.43;100.00;98737.72;5022097;28;20052;-78
2023/12/08 07:05:46;;;;;;;0.40;0.40;;;;;;;7.44;100.00;98749.28;5021581;28;20463;-77
2023/12/08 07:08:12;;;;;;;0.40;0.40;;;;;;;7.43;100.00;98745.75;5021565;28;20388;-78
2023/12/08 07:10:38;;;;;;;0.30;0.30;;;;;;;7.43;100.00;98747.63;5021465;28;20060;-78
2023/12/08 07:13:03;;;;;;;0.40;0.40;;;;;;;7.46;100.00;98764.09;5021040;28;20104;-78
2023/12/08 07:15:29;;;;;;;0.38;0.38;;;;;;;7.45;100.00;98750.91;5021321;28;20037;-78
2023/12/08 07:17:55;;;;;;;0.40;0.40;;;;;;;7.43;100.00;98755.63;5054305;28;20032;-78
2023/12/08 07:20:21;;;;;;;0.40;0.40;;;;;;;7.43;100.00;98758.31;5021203;28;20372;-77
2023/12/08 07:22:47;;;;;;;0.40;0.40;;;;;;;7.42;100.00;98759.34;5021283;28;20090;-78
2023/12/08 07:25:14;;;;;;;0.40;0.40;;;;;;;7.42;100.00;98751.31;5021087;28;20040;-77
2023/12/08 07:27:42;;;;;;;0.40;0.40;;;;;;;7.42;100.00;98752.16;5037724;28;20472;-78
2023/12/08 07:30:08;;;;;;;0.40;0.40;;;;;;;7.43;100.00;98744.94;5021206;28;20037;-77
2023/12/08 07:32:34;;;;;;;0.40;0.40;;;;;;;7.43;100.00;98759.13;5036920;28;20041;-78
2023/12/08 07:35:00;;;;;;;0.40;0.40;;;;;;;7.44;100.00;98755.44;5020980;28;20131;-77
2023/12/08 07:37:25;;;;;;;0.40;0.40;;;;;;;7.46;100.00;98763.25;5037540;28;20040;-78
2023/12/08 07:39:51;;;;;;;0.43;0.43;;;;;;;7.45;100.00;98762.44;5020862;28;20037;-78
2023/12/08 07:42:17;;;;;;;0.40;0.40;;;;;;;7.46;100.00;98753.41;5020845;28;20037;-77
2023/12/08 07:44:44;;;;;;;0.40;0.40;;;;;;;7.47;100.00;98760.38;5020700;28;20040;-78
2023/12/08 07:47:10;;;;;;;0.40;0.40;;;;;;;7.46;100.00;98758.75;5036777;28;20033;-78
2023/12/08 07:49:36;;;;;;;0.40;0.40;;;;;;;7.45;100.00;98754.41;5020727;28;20430;-78
2023/12/08 07:52:02;;;;;;;0.40;0.40;;;;;;;7.45;100.00;98751.72;5036702;28;20124;-78
2023/12/08 07:54:31;;;;;;;0.40;0.40;;;;;;;7.43;100.00;98752.97;5019854;28;20455;-78
2023/12/08 07:56:58;;;;;;;0.40;0.40;;;;;;;7.44;100.00;98758.13;5020826;28;20040;-78
2023/12/08 07:59:26;;;;;;;0.40;0.40;;;;;;;7.44;100.00;98755.44;5053152;28;20029;-78
2023/12/08 08:01:51;;;;;;;0.40;0.40;;;;;;;7.46;100.00;98768.59;5020513;28;20044;-78
2023/12/08 08:04:17;;;;;;;0.40;0.40;;;;;;;7.47;100.00;98765.72;5020080;28;20048;-77
2023/12/08 08:06:43;;;;;;;0.40;0.40;;;;;;;7.48;100.00;98759.34;5036481;28;20475;-78
2023/12/08 08:09:08;;;;;;;0.30;0.30;;;;;;;7.48;100.00;98771.88;5020129;28;20040;-78
2023/12/08 08:11:34;;;;;;;0.40;0.40;;;;;;;7.49;100.00;98774.38;5018573;28;20056;-79
2023/12/08 08:14:06;;;;;;;0.47;0.47;;;;;;;7.53;100.00;98784.66;5053248;28;20112;-78
2023/12/08 08:16:32;;;;;;;0.40;0.40;;;;;;;7.45;100.00;98775.78;5021777;28;20060;-78
2023/12/08 08:18:58;;;;;;;0.40;0.40;;;;;;;7.50;100.00;98780.53;5020150;28;20036;-78
2023/12/08 08:21:23;;;;;;;0.40;0.40;;;;;;;7.45;100.00;98767.78;5020037;28;20040;-78
2023/12/08 08:23:49;;;;;;;0.40;0.40;;;;;;;7.49;100.00;98790.41;5053440;28;20067;-77
2023/12/08 08:26:14;;;;;;;0.40;0.40;;;;;;;7.49;100.00;98777.03;5020151;28;20415;-77
2023/12/08 08:28:40;;;;;;;0.40;0.40;;;;;;;7.48;100.00;98788.75;5019766;28;20467;-77
2023/12/08 08:31:07;;;;;;;0.40;0.40;;;;;;;7.49;100.00;98786.94;5053050;28;20036;-77
2023/12/08 08:33:33;;;;;;;0.40;0.40;;;;;;;7.48;100.00;98785.25;5053114;28;20139;-78
2023/12/08 08:35:58;;;;;;;0.40;0.40;;;;;;;7.49;100.00;98789.59;5020218;28;20116;-78
2023/12/08 08:38:24;;;;;;;0.40;0.40;;;;;;;7.48;100.00;98787.94;5019906;28;20467;-78
2023/12/08 08:40:50;;;;;;;0.40;0.40;;;;;;;7.48;100.00;98786.06;5019821;28;20036;-78
2023/12/08 08:43:15;;;;;;;0.40;0.40;;;;;;;7.51;100.00;98789.38;5019592;28;20048;-78
2023/12/08 08:48:54;;;;;;;0.40;0.40;;;;;;;7.43;100.00;98779.69;5032942;28;20553;-78
2023/12/08 08:51:21;;;;;;;0.40;0.40;;;;;;;7.50;100.00;98791.25;5018768;28;20127;-78
2023/12/08 08:53:49;;;;;;;0.40;0.40;;;;;;;7.56;100.00;98802.97;5036206;28;20548;-77
2023/12/08 08:56:16;;;;;;;0.40;0.40;;;;;;;7.54;100.00;98815.72;5052454;28;20040;-77
2023/12/08 08:58:41;;;;;;;0.40;0.40;;;;;;;7.60;100.00;98820.25;5035696;28;20037;-77
2023/12/08 09:01:07;;;;;;;0.40;0.40;;;;;;;7.64;100.00;98813.47;5035956;28;20048;-78
2023/12/08 09:03:33;;;;;;;0.40;0.40;;;;;;;7.66;100.00;98822.13;5019528;28;20039;-78
2023/12/08 09:05:59;;;;;;;0.40;0.40;;;;;;;7.72;100.00;98815.94;5052468;28;20463;-78
2023/12/08 09:08:24;;;;;;;0.40;0.40;;;;;;;7.73;100.00;98812.25;5035890;28;20091;-78
2023/12/08 09:10:50;;;;;;;0.40;0.40;;;;;;;7.79;100.00;98813.28;5019276;28;20456;-78
2023/12/08 09:13:47;;;;;;;0.40;0.40;;;;;;;7.76;100.00;98822.53;5018121;28;20116;-78
2023/12/08 09:16:12;;;;;;;0.40;0.40;;;;;;;7.79;100.00;98816.78;5018508;28;20102;-78
2023/12/08 09:18:38;;;;;;;0.50;0.50;;;;;;;7.76;100.00;98819.03;5036964;28;20448;-78
2023/12/08 09:21:05;;;;;;;0.40;0.40;;;;;;;7.72;100.00;98821.28;5038614;28;20098;-78
2023/12/08 09:23:31;;;;;;;0.30;0.30;;;;;;;7.68;100.00;98814.72;5038859;28;20033;-78
2023/12/08 09:25:56;;;;;;;0.40;0.40;;;;;;;7.72;100.00;98810.59;5006215;28;20039;-79
2023/12/08 09:28:22;;;;;;;0.40;0.40;;;;;;;7.75;100.00;98823.53;5022614;28;20391;-78
2023/12/08 09:30:48;;;;;;;0.40;0.40;;;;;;;7.79;100.00;98819.44;5023144;28;20080;-78
2023/12/08 09:33:14;;;;;;;0.40;0.40;;;;;;;7.84;100.00;98830.34;5039657;28;20048;-78
2023/12/08 09:35:40;;;;;;;0.40;0.40;;;;;;;7.89;100.00;98830.56;5056220;28;20094;-78
2023/12/08 09:38:06;;;;;;;0.40;0.40;;;;;;;7.96;100.00;98829.72;5055406;28;20036;-82
2023/12/08 09:40:33;;;;;;;0.40;0.40;;;;;;;7.99;100.00;98837.34;5055406;28;20029;-80
2023/12/08 09:43:08;;;;;;;0.40;0.40;;;;;;;8.00;100.00;98849.72;5037836;28;20029;-81
2023/12/08 09:45:34;;;;;;;0.40;0.40;;;;;;;8.04;100.00;98857.09;5037660;28;20546;-80
2023/12/08 09:48:00;;;;;;;0.40;0.40;;;;;;;8.20;100.00;98855.06;5037377;28;20091;-81
2023/12/08 09:50:26;;;;;;;0.40;0.40;;;;;;;8.30;100.00;98844.75;5020926;28;20041;-81
2023/12/08 09:52:53;;;;;;;0.40;0.40;;;;;;;8.46;100.00;98868.44;5037133;28;20060;-81
2023/12/08 09:55:19;;;;;;;0.50;0.50;;;;;;;8.61;100.00;98845.97;5053757;28;20025;-81
2023/12/08 09:57:45;;;;;;;2.30;0.70;;;;;;;8.72;100.00;98858.72;5038214;28;20063;-80
2023/12/08 10:00:23;;;;;;;0.57;0.57;;;;;;;8.88;100.00;98841.34;5039097;28;20139;-81
2023/12/08 10:03:02;;;;;;;2.78;1.48;;;;;;;8.97;100.00;98867.72;5038745;28;20472;-80
2023/12/08 10:05:28;;;;;;;3.45;1.75;;;;;;;8.93;100.00;98860.28;5055640;28;20033;-81
2023/12/08 10:07:54;;;;;;;2.90;1.80;;;;;;;8.91;100.00;98863.19;5038567;28;20024;-81
2023/12/08 10:10:21;;;;;;;1.73;0.93;;;;;;;9.01;100.00;98852.84;5022265;28;20116;-81
2023/12/08 10:12:47;;;;;;;4.57;1.10;;;;;;;9.07;100.00;98856.53;5038801;28;20507;-81
2023/12/08 10:15:16;;;;;;;1.15;1.05;;;;;;;9.09;100.00;98851.78;5055065;28;20051;-81
2023/12/08 10:17:49;;;;;;;2.53;2.13;;;;;;;9.12;100.00;98867.44;5055284;28;20028;-81
2023/12/08 10:20:15;;;;;;;2.08;1.42;;;;;;;9.22;100.00;98851.72;5021718;28;20399;-81
2023/12/08 10:22:50;;;;;;;10.00;1.25;;;;;;;9.14;100.00;98870.72;5022219;28;20124;-81
2023/12/08 10:25:18;;;;;;;3.10;0.75;;;;;;;8.97;100.00;98880.25;5056101;28;20036;-81
2023/12/08 10:27:50;;;;;;;3.67;0.93;;;;;;;8.66;100.00;98887.16;5038712;28;20036;-81
2023/12/08 10:30:16;;;;;;;2.50;1.13;;;;;;;8.51;100.00;98887.38;5054943;28;20488;-81
2023/12/08 10:32:43;;;;;;;4.40;1.25;;;;;;;8.42;100.00;98901.22;5022436;28;20029;-81
2023/12/08 10:35:11;;;;;;;0.57;0.57;;;;;;;8.44;100.00;98889.28;5022392;28;20041;-80
2023/12/08 10:37:41;;;;;;;0.40;0.40;;;;;;;8.48;100.00;98895.03;5054689;28;20037;-81
2023/12/08 10:40:14;;;;;;;0.40;0.40;;;;;;;8.55;100.00;98885.97;5021938;28;20147;-80
2023/12/08 10:42:40;;;;;;;0.47;0.47;;;;;;;8.64;100.00;98893.78;5054927;28;20087;-81
2023/12/08 10:45:11;;;;;;;0.40;0.40;;;;;;;8.65;100.00;98890.88;5054936;28;20495;-80
2023/12/08 10:47:42;;;;;;;0.43;0.43;;;;;;;8.62;100.00;98893.97;5038841;28;20120;-81
2023/12/08 10:50:10;;;;;;;0.40;0.40;;;;;;;8.69;100.00;98904.69;5038192;28;20082;-81
2023/12/08 10:52:38;;;;;;;0.40;0.40;;;;;;;8.75;100.00;98890.44;5054389;28;20040;-80
2023/12/08 10:55:05;;;;;;;0.50;0.50;;;;;;;8.79;100.00;98887.13;5021756;28;20032;-80
2023/12/08 10:57:36;;;;;;;0.40;0.40;;;;;;;8.96;100.00;98898.22;5038242;28;20032;-80
2023/12/08 11:00:24;;;;;;;0.40;0.40;;;;;;;9.09;100.00;98901.91;5023304;28;20086;-80
2023/12/08 11:02:50;;;;;;;0.40;0.40;;;;;;;9.10;100.00;98895.50;5024099;28;20033;-81
2023/12/08 11:05:26;;;;;;;0.40;0.40;;;;;;;8.98;100.00;98889.97;5053615;28;20041;-81
2023/12/08 11:08:13;;;;;;;0.40;0.40;;;;;;;8.83;100.00;98908.97;5053964;28;20074;-81
2023/12/08 11:10:42;;;;;;;0.40;0.40;;;;;;;8.63;100.00;98914.38;5036181;28;20064;-82
2023/12/08 11:13:34;;;;;;;0.40;0.40;;;;;;;8.56;100.00;98921.59;5038268;28;20226;-81
2023/12/08 11:16:10;;;;;;;0.50;0.50;;;;;;;8.60;100.00;98920.16;5052201;28;20479;-80
2023/12/08 11:18:38;;;;;;;0.40;0.40;;;;;;;8.66;100.00;98921.19;5019266;28;20498;-81
2023/12/08 11:21:09;;;;;;;0.40;0.40;;;;;;;8.75;100.00;98922.59;5052309;28;20036;-81
2023/12/08 11:23:36;;;;;;;0.40;0.40;;;;;;;8.93;100.00;98917.41;5035656;28;20041;-81
2023/12/08 11:26:28;;;;;;;0.40;0.40;;;;;;;8.99;100.00;98913.06;5002736;28;20062;-80
2023/12/08 11:28:59;;;;;;;0.40;0.40;;;;;;;8.89;100.00;98915.34;5032934;28;20037;-81
2023/12/08 11:31:53;;;;;;;0.40;0.40;;;;;;;8.89;100.00;98907.31;5036972;28;20045;-81
2023/12/08 11:34:24;;;;;;;0.40;0.40;;;;;;;8.84;100.00;98915.16;5038040;28;20472;-80